createdAt,value
2018-08-03T00:01:38.417Z,21.25
2018-08-03T00:04:07.320Z,21.23
2018-08-03T00:06:35.837Z,21.21
2018-08-03T00:09:07.746Z,20.18
2018-08-03T00:11:36.244Z,21.15
2018-08-03T00:14:04.775Z,21.12
2018-08-03T00:16:33.340Z,21.08
2018-08-03T00:19:02.093Z,21.08
2018-08-03T00:21:31.752Z,21.06
2018-08-03T00:24:01.189Z,21.03
2018-08-03T00:26:30.387Z,20.99
2018-08-03T00:28:59.463Z,20.97
2018-08-03T00:31:29.689Z,19.66
2018-08-03T00:33:58.560Z,20.93
2018-08-03T00:36:27.057Z,20.92
2018-08-03T00:38:56.226Z,20.90
2018-08-03T00:41:25.298Z,20.86
2018-08-03T00:43:53.758Z,20.85
2018-08-03T00:46:22.731Z,20.83
2018-08-03T00:48:51.180Z,20.82
2018-08-03T00:51:19.633Z,20.78
2018-08-03T00:53:48.782Z,20.76
2018-08-03T00:56:17.232Z,20.70
2018-08-03T00:58:46.285Z,20.69
2018-08-03T01:01:15.573Z,20.67
2018-08-03T01:03:44.101Z,20.67
2018-08-03T01:06:12.537Z,20.65
2018-08-03T01:08:41.201Z,20.63
2018-08-03T01:11:09.744Z,20.61
2018-08-03T01:13:38.193Z,20.61
2018-08-03T01:16:07.264Z,20.61
2018-08-03T01:18:35.724Z,20.61
2018-08-03T01:21:04.212Z,20.59
2018-08-03T01:23:33.007Z,20.57
2018-08-03T01:26:01.475Z,20.53
2018-08-03T01:28:30.014Z,20.50
2018-08-03T01:30:58.766Z,20.48
2018-08-03T01:33:27.673Z,20.46
2018-08-03T01:35:56.109Z,20.43
2018-08-03T01:38:24.879Z,20.40
2018-08-03T01:40:53.345Z,20.39
2018-08-03T01:43:21.848Z,20.38
2018-08-03T01:45:50.626Z,20.35
2018-08-03T01:48:20.284Z,20.36
2018-08-03T01:50:49.043Z,20.34
2018-08-03T01:53:18.158Z,20.30
2018-08-03T01:55:46.669Z,20.28
2018-08-03T01:58:15.117Z,20.28
2018-08-03T02:00:44.274Z,20.29
2018-08-03T02:03:12.854Z,20.26
2018-08-03T02:05:41.269Z,20.26
2018-08-03T02:08:10.277Z,20.26
2018-08-03T02:10:38.761Z,20.24
2018-08-03T02:13:07.522Z,20.23
2018-08-03T02:15:36.334Z,20.23
2018-08-03T02:18:04.764Z,20.22
2018-08-03T02:20:34.183Z,20.18
2018-08-03T02:23:03.061Z,20.14
2018-08-03T02:25:31.889Z,20.12
2018-08-03T02:28:00.561Z,20.11
2018-08-03T02:30:29.729Z,20.09
2018-08-03T02:32:58.222Z,20.11
2018-08-03T02:35:26.672Z,20.09
2018-08-03T02:37:55.477Z,20.08
2018-08-03T02:40:24.353Z,20.06
2018-08-03T02:42:53.333Z,20.07
2018-08-03T02:45:22.410Z,20.06
2018-08-03T02:47:51.145Z,20.06
2018-08-03T02:50:19.585Z,20.05
2018-08-03T02:52:48.511Z,20.02
2018-08-03T02:55:16.933Z,20.02
2018-08-03T02:57:45.430Z,20.02
2018-08-03T03:00:14.508Z,20.00
2018-08-03T03:02:42.986Z,20.04
2018-08-03T03:05:11.573Z,20.05
2018-08-03T03:07:40.561Z,20.05
2018-08-03T03:10:09.204Z,20.03
2018-08-03T03:12:37.678Z,20.05
2018-08-03T03:15:06.981Z,20.07
2018-08-03T03:17:35.977Z,20.10
2018-08-03T03:20:04.642Z,20.14
2018-08-03T03:22:33.593Z,20.15
2018-08-03T03:25:02.078Z,20.15
2018-08-03T03:27:30.577Z,20.16
2018-08-03T03:29:59.977Z,20.17
2018-08-03T03:32:28.540Z,20.18
2018-08-03T03:34:57.177Z,20.21
2018-08-03T03:37:26.018Z,20.23
2018-08-03T03:39:54.587Z,20.24
2018-08-03T03:42:23.021Z,20.27
2018-08-03T03:44:52.004Z,20.25
2018-08-03T03:47:20.444Z,20.27
2018-08-03T03:49:48.928Z,20.27
2018-08-03T03:52:17.565Z,20.27
2018-08-03T03:54:46.087Z,20.29
2018-08-03T03:57:14.530Z,20.28
2018-08-03T03:59:43.825Z,20.32
2018-08-03T04:02:12.315Z,20.32
2018-08-03T04:04:40.978Z,20.32
2018-08-03T04:07:09.994Z,20.35
2018-08-03T04:09:38.521Z,20.37
2018-08-03T04:12:07.314Z,20.38
2018-08-03T04:14:36.298Z,20.39
2018-08-03T04:17:04.837Z,20.37
2018-08-03T04:19:33.545Z,20.39
2018-08-03T04:22:02.414Z,20.43
2018-08-03T04:24:31.304Z,20.37
2018-08-03T04:27:00.176Z,20.38
2018-08-03T04:29:28.714Z,20.36
2018-08-03T04:31:57.640Z,20.37
2018-08-03T04:34:26.109Z,20.38
2018-08-03T04:36:55.114Z,20.40
2018-08-03T04:39:23.629Z,20.40
2018-08-03T04:41:52.646Z,20.43
2018-08-03T04:44:21.749Z,20.43
2018-08-03T04:46:50.210Z,20.44
2018-08-03T04:49:18.630Z,20.47
2018-08-03T04:51:47.690Z,20.52
2018-08-03T04:54:16.421Z,20.49
2018-08-03T04:56:44.874Z,20.48
2018-08-03T04:59:14.477Z,20.48
2018-08-03T05:01:43.045Z,20.50
2018-08-03T05:04:11.499Z,20.49
2018-08-03T05:06:40.537Z,20.52
2018-08-03T05:09:09.385Z,20.54
2018-08-03T05:11:37.841Z,20.52
2018-08-03T05:14:06.594Z,20.55
2018-08-03T05:16:35.502Z,20.56
2018-08-03T05:19:03.938Z,20.55
2018-08-03T05:21:32.645Z,20.57
2018-08-03T05:24:01.205Z,20.56
2018-08-03T05:26:29.893Z,20.63
2018-08-03T05:28:58.746Z,20.70
2018-08-03T05:31:27.454Z,20.69
2018-08-03T05:33:56.429Z,20.70
2018-08-03T05:36:25.458Z,20.73
2018-08-03T05:38:53.938Z,20.84
2018-08-03T05:41:22.400Z,20.93
2018-08-03T05:43:51.450Z,20.96
2018-08-03T05:46:19.967Z,20.99
2018-08-03T05:48:48.397Z,21.01
2018-08-03T05:51:17.486Z,21.03
2018-08-03T05:53:45.972Z,21.09
2018-08-03T05:56:14.461Z,21.11
2018-08-03T05:58:43.595Z,21.18
2018-08-03T06:01:12.101Z,21.21
2018-08-03T06:03:40.517Z,21.22
2018-08-03T06:06:09.310Z,21.25
2018-08-03T06:08:38.165Z,21.32
2018-08-03T06:11:06.858Z,21.36
2018-08-03T06:13:35.995Z,21.30
2018-08-03T06:16:04.557Z,21.32
2018-08-03T06:18:33.113Z,21.31
2018-08-03T06:21:02.013Z,21.30
2018-08-03T06:23:31.517Z,21.31
2018-08-03T06:26:00.802Z,21.35
2018-08-03T06:28:29.921Z,21.37
2018-08-03T06:30:58.657Z,21.43
2018-08-03T06:33:27.101Z,21.53
2018-08-03T06:35:56.442Z,21.68
2018-08-03T06:38:25.068Z,21.81
2018-08-03T06:40:53.537Z,21.82
2018-08-03T06:43:22.334Z,21.83
2018-08-03T06:45:50.858Z,21.94
2018-08-03T06:48:19.475Z,22.06
2018-08-03T06:50:48.093Z,22.06
2018-08-03T06:53:16.626Z,22.28
2018-08-03T06:55:45.209Z,22.21
2018-08-03T06:58:13.833Z,22.30
2018-08-03T07:00:42.285Z,22.46
2018-08-03T07:03:10.968Z,22.56
2018-08-03T07:05:39.949Z,22.74
2018-08-03T07:08:09.102Z,22.94
2018-08-03T07:10:38.070Z,23.15
2018-08-03T07:13:06.926Z,23.22
2018-08-03T07:15:35.508Z,23.14
2018-08-03T07:18:04.010Z,23.15
2018-08-03T07:20:33.041Z,23.14
2018-08-03T07:23:01.432Z,23.12
2018-08-03T07:25:31.052Z,23.25
2018-08-03T07:28:00.267Z,23.62
2018-08-03T07:30:28.749Z,24.05
2018-08-03T07:32:57.207Z,24.73
2018-08-03T07:35:26.576Z,25.18
2018-08-03T07:37:55.058Z,25.81
2018-08-03T07:40:24.657Z,26.52
2018-08-03T07:42:53.596Z,26.81
2018-08-03T07:45:22.084Z,27.21
2018-08-03T07:47:50.557Z,27.35
2018-08-03T07:50:19.673Z,27.61
2018-08-03T07:52:48.421Z,27.33
2018-08-03T07:55:16.938Z,27.53
2018-08-03T07:57:45.659Z,27.71
2018-08-03T08:00:14.373Z,27.88
2018-08-03T08:02:42.833Z,28.23
2018-08-03T08:05:11.720Z,28.42
2018-08-03T08:07:40.911Z,28.22
2018-08-03T08:10:09.393Z,28.33
2018-08-03T08:12:38.396Z,27.85
2018-08-03T08:15:06.979Z,27.99
2018-08-03T08:17:35.494Z,28.69
2018-08-03T08:20:05.080Z,29.22
2018-08-03T08:22:33.685Z,29.29
2018-08-03T08:25:02.157Z,28.75
2018-08-03T08:27:30.813Z,28.72
2018-08-03T08:29:59.418Z,29.11
2018-08-03T08:32:28.037Z,29.43
2018-08-03T08:34:57.172Z,29.45
2018-08-03T08:37:25.688Z,29.03
2018-08-03T08:39:54.164Z,28.66
2018-08-03T08:42:23.230Z,28.70
2018-08-03T08:44:51.685Z,28.70
2018-08-03T08:47:20.157Z,28.99
2018-08-03T08:49:49.617Z,29.10
2018-08-03T08:52:18.142Z,29.07
2018-08-03T08:54:46.658Z,29.13
2018-08-03T08:57:15.561Z,29.41
2018-08-03T08:59:44.242Z,29.01
2018-08-03T09:02:12.728Z,28.55
2018-08-03T09:04:41.504Z,28.01
2018-08-03T09:07:10.182Z,27.90
2018-08-03T09:09:38.634Z,28.72
2018-08-03T09:12:08.331Z,29.88
2018-08-03T09:14:37.414Z,30.22
2018-08-03T09:17:08.282Z,29.99
2018-08-03T09:19:37.193Z,30.29
2018-08-03T09:22:06.211Z,30.60
2018-08-03T09:24:34.893Z,31.16
2018-08-03T09:27:04.237Z,31.49
2018-08-03T09:29:32.787Z,30.93
2018-08-03T09:32:01.302Z,30.70
2018-08-03T09:34:31.107Z,30.39
2018-08-03T09:36:59.783Z,30.51
2018-08-03T09:39:29.197Z,30.94
2018-08-03T09:41:58.462Z,31.25
2018-08-03T09:44:26.942Z,31.26
2018-08-03T09:46:56.213Z,31.26
2018-08-03T09:49:24.805Z,31.25
2018-08-03T09:51:53.405Z,31.06
2018-08-03T09:54:21.935Z,31.48
2018-08-03T09:56:52.583Z,32.47
2018-08-03T09:59:21.250Z,33.16
2018-08-03T10:01:49.692Z,32.52
2018-08-03T10:04:18.825Z,32.10
2018-08-03T10:06:47.353Z,31.77
2018-08-03T10:09:15.793Z,31.27
2018-08-03T10:11:44.809Z,30.79
2018-08-03T10:14:13.306Z,30.66
2018-08-03T10:16:41.802Z,30.27
2018-08-03T10:19:10.862Z,30.48
2018-08-03T10:21:39.334Z,31.13
2018-08-03T10:24:08.119Z,31.69
2018-08-03T10:26:37.234Z,31.15
2018-08-03T10:29:05.767Z,30.43
2018-08-03T10:31:34.238Z,29.84
2018-08-03T10:34:03.346Z,29.69
2018-08-03T10:36:32.031Z,29.30
2018-08-03T10:39:00.485Z,29.60
2018-08-03T10:41:29.709Z,29.17
2018-08-03T10:43:58.249Z,28.86
2018-08-03T10:46:26.685Z,28.99
2018-08-03T10:48:55.285Z,28.94
2018-08-03T10:51:23.911Z,29.05
2018-08-03T10:53:52.646Z,29.25
2018-08-03T10:56:21.818Z,29.57
2018-08-03T10:58:50.770Z,29.86
2018-08-03T11:01:19.270Z,30.54
2018-08-03T11:03:48.243Z,31.47
2018-08-03T11:06:16.753Z,31.91
2018-08-03T11:08:45.245Z,32.39
2018-08-03T11:11:13.889Z,32.87
2018-08-03T11:13:43.615Z,32.18
2018-08-03T11:16:12.127Z,31.31
2018-08-03T11:18:41.151Z,31.05
2018-08-03T11:21:09.636Z,31.20
2018-08-03T11:23:38.076Z,31.04
2018-08-03T11:26:06.733Z,30.60
2018-08-03T11:28:35.222Z,30.71
2018-08-03T11:31:03.671Z,30.79
2018-08-03T11:33:32.345Z,31.44
2018-08-03T11:36:00.813Z,32.46
2018-08-03T11:38:33.678Z,33.18
2018-08-03T11:41:02.169Z,32.93
2018-08-03T11:43:30.959Z,31.96
2018-08-03T11:45:59.885Z,31.22
2018-08-03T11:48:28.498Z,31.09
2018-08-03T11:50:56.879Z,31.16
2018-08-03T11:53:25.463Z,31.25
2018-08-03T11:55:53.961Z,31.77
2018-08-03T11:58:22.430Z,32.26
2018-08-03T12:00:54.383Z,32.12
2018-08-03T12:03:22.885Z,32.09
2018-08-03T12:05:51.317Z,31.87
2018-08-03T12:08:19.833Z,31.75
2018-08-03T12:10:48.494Z,32.21
2018-08-03T12:13:17.013Z,32.72
2018-08-03T12:15:46.512Z,32.80
2018-08-03T12:18:15.495Z,33.05
2018-08-03T12:20:45.805Z,32.96
2018-08-03T12:23:14.883Z,33.10
2018-08-03T12:25:43.686Z,32.47
2018-08-03T12:28:12.529Z,32.62
2018-08-03T12:30:41.549Z,32.90
2018-08-03T12:33:10.438Z,33.40
2018-08-03T12:35:38.884Z,32.75
2018-08-03T12:38:07.997Z,32.19
2018-08-03T12:40:36.493Z,31.72
2018-08-03T12:43:04.953Z,32.04
2018-08-03T12:45:34.146Z,31.99
2018-08-03T12:48:02.344Z,31.78
2018-08-03T12:50:30.838Z,31.89
2018-08-03T12:52:59.510Z,31.72
2018-08-03T12:55:28.079Z,31.80
2018-08-03T12:57:56.770Z,31.52
2018-08-03T13:00:25.861Z,31.44
2018-08-03T13:02:54.360Z,31.10
2018-08-03T13:05:24.005Z,31.45
2018-08-03T13:07:54.303Z,31.52
2018-08-03T13:10:22.657Z,31.87
2018-08-03T13:12:51.092Z,32.46
2018-08-03T13:15:19.730Z,32.84
2018-08-03T13:17:49.261Z,33.10
2018-08-03T13:20:17.722Z,32.99
2018-08-03T13:22:46.826Z,32.46
2018-08-03T13:25:15.251Z,32.18
2018-08-03T13:27:43.699Z,32.16
2018-08-03T13:30:12.306Z,32.74
2018-08-03T13:32:40.927Z,33.81
2018-08-03T13:35:09.501Z,33.98
2018-08-03T13:37:38.301Z,33.94
2018-08-03T13:40:06.774Z,33.83
2018-08-03T13:42:35.225Z,33.15
2018-08-03T13:45:04.602Z,32.83
2018-08-03T13:47:33.077Z,32.89
2018-08-03T13:50:01.538Z,32.82
2018-08-03T13:52:31.381Z,33.16
2018-08-03T13:55:00.173Z,33.96
2018-08-03T13:57:28.627Z,33.97
2018-08-03T13:59:57.609Z,34.16
2018-08-03T14:02:28.301Z,34.13
2018-08-03T14:04:57.236Z,34.20
2018-08-03T14:07:28.042Z,34.43
2018-08-03T14:09:56.513Z,34.22
2018-08-03T14:12:24.973Z,34.17
2018-08-03T14:14:54.097Z,34.11
2018-08-03T14:17:22.560Z,34.63
2018-08-03T14:19:51.245Z,34.38
2018-08-03T14:22:20.154Z,34.27
2018-08-03T14:24:48.684Z,34.91
2018-08-03T14:27:17.133Z,34.68
2018-08-03T14:29:46.213Z,34.81
2018-08-03T14:32:14.817Z,34.54
2018-08-03T14:34:43.640Z,34.30
2018-08-03T14:37:12.882Z,33.51
2018-08-03T14:39:41.347Z,33.61
2018-08-03T14:42:09.817Z,33.57
2018-08-03T14:44:38.605Z,34.30
2018-08-03T14:47:07.157Z,34.82
2018-08-03T14:49:35.603Z,35.58
2018-08-03T14:52:04.169Z,36.00
2018-08-03T14:54:32.639Z,36.66
2018-08-03T14:57:01.103Z,36.67
2018-08-03T14:59:30.411Z,36.12
2018-08-03T15:01:59.552Z,35.98
2018-08-03T15:04:28.029Z,36.42
2018-08-03T15:06:57.149Z,36.78
2018-08-03T15:09:25.618Z,36.50
2018-08-03T15:11:54.136Z,36.58
2018-08-03T15:14:23.089Z,35.95
2018-08-03T15:16:51.570Z,34.91
2018-08-03T15:19:20.024Z,34.10
2018-08-03T15:21:49.213Z,34.32
2018-08-03T15:24:17.657Z,34.93
2018-08-03T15:26:46.111Z,35.36
2018-08-03T15:29:14.805Z,35.29
2018-08-03T15:31:43.260Z,34.53
2018-08-03T15:34:11.846Z,34.09
2018-08-03T15:36:40.816Z,33.86
2018-08-03T15:39:10.794Z,34.00
2018-08-03T15:41:39.265Z,34.15
2018-08-03T15:44:07.883Z,34.63
2018-08-03T15:46:36.351Z,34.35
2018-08-03T15:49:04.833Z,35.07
2018-08-03T15:51:34.113Z,35.53
2018-08-03T15:54:02.771Z,35.99
2018-08-03T15:56:31.253Z,36.47
2018-08-03T15:59:00.414Z,35.46
2018-08-03T16:01:29.534Z,35.41
2018-08-03T16:03:58.008Z,34.53
2018-08-03T16:06:26.654Z,34.26
2018-08-03T16:08:55.106Z,33.24
2018-08-03T16:11:23.658Z,32.87
2018-08-03T16:13:52.538Z,33.77
2018-08-03T16:16:21.101Z,34.14
2018-08-03T16:18:49.834Z,34.30
2018-08-03T16:21:18.581Z,34.76
2018-08-03T16:23:47.713Z,33.96
2018-08-03T16:26:16.221Z,33.44
2018-08-03T16:28:46.178Z,33.23
2018-08-03T16:31:14.665Z,33.16
2018-08-03T16:33:43.155Z,32.57
2018-08-03T16:36:12.236Z,32.59
2018-08-03T16:38:40.825Z,32.78
2018-08-03T16:41:09.290Z,32.60
2018-08-03T16:43:38.329Z,31.99
2018-08-03T16:46:07.209Z,32.23
2018-08-03T16:48:36.094Z,32.77
2018-08-03T16:51:09.728Z,32.89
2018-08-03T16:53:38.386Z,32.60
2018-08-03T16:56:07.557Z,32.83
2018-08-03T16:58:36.172Z,32.81
2018-08-03T17:01:04.642Z,32.22
2018-08-03T17:03:34.502Z,31.75
2018-08-03T17:06:02.973Z,31.32
2018-08-03T17:08:31.424Z,31.28
2018-08-03T17:11:00.654Z,30.82
2018-08-03T17:13:29.333Z,30.47
2018-08-03T17:15:58.842Z,30.45
2018-08-03T17:18:27.970Z,30.43
2018-08-03T17:20:56.986Z,30.19
2018-08-03T17:23:25.525Z,29.88
2018-08-03T17:25:54.846Z,29.49
2018-08-03T17:28:23.287Z,29.33
2018-08-03T17:30:51.729Z,29.19
2018-08-03T17:33:20.665Z,28.97
2018-08-03T17:35:49.105Z,28.89
2018-08-03T17:38:17.886Z,28.84
2018-08-03T17:40:47.021Z,28.63
2018-08-03T17:43:15.668Z,28.54
2018-08-03T17:45:44.182Z,28.08
2018-08-03T17:48:13.361Z,27.91
2018-08-03T17:50:41.821Z,27.89
2018-08-03T17:53:10.271Z,27.87
2018-08-03T17:55:39.069Z,27.82
2018-08-03T17:58:07.517Z,27.74
2018-08-03T18:00:35.957Z,27.69
2018-08-03T18:03:04.562Z,27.53
2018-08-03T18:05:33.036Z,27.46
2018-08-03T18:08:01.577Z,27.36
2018-08-03T18:10:31.458Z,27.25
2018-08-03T18:13:00.794Z,27.24
2018-08-03T18:15:29.689Z,27.23
2018-08-03T18:17:58.837Z,27.13
2018-08-03T18:20:27.647Z,27.10
2018-08-03T18:22:56.106Z,27.05
2018-08-03T18:25:25.108Z,27.05
2018-08-03T18:27:53.717Z,27.03
2018-08-03T18:30:22.229Z,27.04
2018-08-03T18:32:51.502Z,26.99
2018-08-03T18:35:20.076Z,26.92
2018-08-03T18:37:48.636Z,26.82
2018-08-03T18:40:17.302Z,26.74
2018-08-03T18:42:45.741Z,26.71
2018-08-03T18:45:14.230Z,26.74
2018-08-03T18:47:43.009Z,26.70
2018-08-03T18:50:11.449Z,26.62
2018-08-03T18:52:41.037Z,26.53
2018-08-03T18:55:09.694Z,26.46
2018-08-03T18:57:38.454Z,26.47
2018-08-03T19:00:07.493Z,26.41
2018-08-03T19:02:36.959Z,26.37
2018-08-03T19:05:06.293Z,26.30
2018-08-03T19:07:34.741Z,26.28
2018-08-03T19:10:03.330Z,26.30
2018-08-03T19:12:32.029Z,26.21
2018-08-03T19:15:01.389Z,26.16
2018-08-03T19:17:31.483Z,26.14
2018-08-03T19:20:01.307Z,26.14
2018-08-03T19:22:29.969Z,26.06
2018-08-03T19:24:58.964Z,26.03
2018-08-03T19:27:27.881Z,26.01
2018-08-03T19:29:56.518Z,25.94
2018-08-03T19:32:25.420Z,25.87
2018-08-03T19:34:55.693Z,25.83
2018-08-03T19:37:24.229Z,25.78
2018-08-03T19:39:53.078Z,25.70
2018-08-03T19:42:22.481Z,25.70
2018-08-03T19:44:50.937Z,25.67
2018-08-03T19:47:20.061Z,25.61
2018-08-03T19:49:48.557Z,25.55
2018-08-03T19:52:17.333Z,25.50
2018-08-03T19:54:46.848Z,25.52
2018-08-03T19:57:15.308Z,25.47
2018-08-03T19:59:43.762Z,25.46
2018-08-03T20:02:12.806Z,25.43
2018-08-03T20:04:41.487Z,25.45
2018-08-03T20:07:09.930Z,25.39
2018-08-03T20:09:38.881Z,25.36
2018-08-03T20:12:07.729Z,25.32
2018-08-03T20:14:36.206Z,25.31
2018-08-03T20:17:05.506Z,25.28
2018-08-03T20:19:33.993Z,25.22
2018-08-03T20:22:02.527Z,25.19
2018-08-03T20:24:31.577Z,25.18
2018-08-03T20:27:01.067Z,25.12
2018-08-03T20:29:29.707Z,25.09
2018-08-03T20:31:59.532Z,25.03
2018-08-03T20:34:28.053Z,24.98
2018-08-03T20:36:57.413Z,24.95
2018-08-03T20:39:32.893Z,24.96
2018-08-03T20:42:02.100Z,24.95
2018-08-03T20:44:32.057Z,24.88
2018-08-03T20:47:03.896Z,24.82
2018-08-03T20:49:32.865Z,24.77
2018-08-03T20:52:01.554Z,24.77
2018-08-03T20:54:31.050Z,24.76
2018-08-03T20:56:59.585Z,24.74
2018-08-03T20:59:28.110Z,24.56
2018-08-03T21:01:57.509Z,24.75
2018-08-03T21:04:26.152Z,24.74
2018-08-03T21:06:54.617Z,24.72
2018-08-03T21:09:23.557Z,24.67
2018-08-03T21:11:52.533Z,24.68
2018-08-03T21:14:20.969Z,24.65
2018-08-03T21:16:49.989Z,24.60
2018-08-03T21:19:18.496Z,24.58
2018-08-03T21:21:47.169Z,24.56
2018-08-03T21:24:16.353Z,24.53
2018-08-03T21:26:44.810Z,24.50
2018-08-03T21:29:13.262Z,24.49
2018-08-03T21:31:42.538Z,24.50
2018-08-03T21:34:11.536Z,24.44
2018-08-03T21:36:40.009Z,24.42
2018-08-03T21:39:10.756Z,24.40
2018-08-03T21:41:39.211Z,24.37
2018-08-03T21:44:07.790Z,24.34
2018-08-03T21:46:36.952Z,24.33
2018-08-03T21:49:05.753Z,24.29
2018-08-03T21:51:34.621Z,24.30
2018-08-03T21:54:03.888Z,24.30
2018-08-03T21:56:32.332Z,24.25
2018-08-03T21:59:00.780Z,24.19
2018-08-03T22:01:30.413Z,24.18
2018-08-03T22:03:58.948Z,24.17
2018-08-03T22:06:27.368Z,24.12
2018-08-03T22:08:56.565Z,24.11
2018-08-03T22:11:25.230Z,24.09
2018-08-03T22:13:53.813Z,24.07
2018-08-03T22:16:22.677Z,24.02
2018-08-03T22:18:51.242Z,24.02
2018-08-03T22:21:19.709Z,24.01
2018-08-03T22:23:49.039Z,23.96
2018-08-03T22:26:17.476Z,23.98
2018-08-03T22:28:45.916Z,23.96
2018-08-03T22:31:14.881Z,23.96
2018-08-03T22:33:43.580Z,23.91
2018-08-03T22:36:12.396Z,23.88
2018-08-03T22:38:41.468Z,23.84
2018-08-03T22:41:09.973Z,23.83
2018-08-03T22:43:38.412Z,23.83
2018-08-03T22:46:07.548Z,23.81
2018-08-03T22:48:36.364Z,23.79
2018-08-03T22:51:05.022Z,23.77
2018-08-03T22:53:34.184Z,23.70
2018-08-03T22:56:02.634Z,23.67
2018-08-03T22:58:31.216Z,23.62
2018-08-03T23:01:00.338Z,23.46
2018-08-03T23:03:29.372Z,23.55
2018-08-03T23:05:57.940Z,23.51
2018-08-03T23:08:26.666Z,23.50
2018-08-03T23:10:55.112Z,23.43
2018-08-03T23:13:23.580Z,23.38
2018-08-03T23:15:52.415Z,23.38
2018-08-03T23:18:20.821Z,23.33
2018-08-03T23:20:49.280Z,23.25
2018-08-03T23:23:18.098Z,23.25
2018-08-03T23:25:47.352Z,23.26
2018-08-03T23:28:15.797Z,23.25
2018-08-03T23:30:44.770Z,23.18
2018-08-03T23:33:13.249Z,23.13
2018-08-03T23:35:41.722Z,23.12
2018-08-03T23:38:10.834Z,23.07
2018-08-03T23:40:39.286Z,22.99
2018-08-03T23:43:07.741Z,22.93
2018-08-03T23:45:37.562Z,22.99
2018-08-03T23:48:06.049Z,22.99
2018-08-03T23:50:34.768Z,22.93
2018-08-03T23:53:03.867Z,22.91
2018-08-03T23:55:32.379Z,22.93
2018-08-03T23:58:00.832Z,22.93
